Time;durP1;ratioP1;P1;durP2;ratioP2;P2;SDS_P1;SDS_P2;PMS_P1;PMS_P2;Temp;Humidity;BMP_temperature;BMP_pressure;BME280_temperature;BME280_humidity;BME280_pressure;Samples;Min_cycle;Max_cycle;Signal;HPM_P1;HPM_P2
2022/08/02 00:00:51;;;;;;;5.50;2.80;;;14.10;99.90;;;;;;5105894;28;20144;-62
2022/08/02 00:03:17;;;;;;;5.65;3.05;;;13.90;99.90;;;;;;5110195;28;20043;-62
2022/08/02 00:05:43;;;;;;;6.85;2.95;;;13.90;99.90;;;;;;5109326;28;20281;-62
2022/08/02 00:08:09;;;;;;;6.28;3.05;;;13.80;99.90;;;;;;5109931;28;20040;-62
2022/08/02 00:10:34;;;;;;;9.23;2.88;;;13.70;99.90;;;;;;5108886;28;20057;-62
2022/08/02 00:13:00;;;;;;;6.50;3.15;;;13.90;99.90;;;;;;5108451;28;20035;-62
2022/08/02 00:15:26;;;;;;;5.72;2.78;;;13.70;99.90;;;;;;5108168;28;20042;-62
2022/08/02 00:17:51;;;;;;;4.90;3.05;;;13.60;99.90;;;;;;5109053;28;20034;-62
2022/08/02 00:20:17;;;;;;;9.20;3.38;;;13.60;99.90;;;;;;5108643;28;20441;-62
2022/08/02 00:22:43;;;;;;;5.07;2.92;;;13.60;99.90;;;;;;5109457;28;20531;-62
2022/08/02 00:25:08;;;;;;;7.70;3.20;;;13.60;99.90;;;;;;5110114;28;20043;-62
2022/08/02 00:27:34;;;;;;;3.90;3.15;;;13.60;99.90;;;;;;5108556;28;20118;-62
2022/08/02 00:30:00;;;;;;;6.18;3.50;;;13.60;99.90;;;;;;5109277;28;20040;-62
2022/08/02 00:32:25;;;;;;;7.93;4.20;;;13.60;99.90;;;;;;5109428;28;20465;-62
2022/08/02 00:34:51;;;;;;;7.03;3.60;;;13.60;99.90;;;;;;5107915;28;20380;-62
2022/08/02 00:37:17;;;;;;;9.20;3.33;;;13.50;99.90;;;;;;5109390;28;20035;-62
2022/08/02 00:39:43;;;;;;;8.30;3.80;;;13.50;99.90;;;;;;5109208;28;20035;-62
2022/08/02 00:42:09;;;;;;;10.15;3.75;;;13.50;99.90;;;;;;5108723;28;20078;-62
2022/08/02 00:44:34;;;;;;;8.10;4.22;;;13.50;99.90;;;;;;5108703;27;20110;-62
2022/08/02 00:47:00;;;;;;;4.90;3.90;;;13.50;99.90;;;;;;5108647;28;20051;-62
2022/08/02 00:49:26;;;;;;;8.38;4.43;;;13.40;99.90;;;;;;5108268;28;20085;-62
2022/08/02 00:51:51;;;;;;;11.32;4.75;;;13.40;99.90;;;;;;5108637;28;20465;-62
2022/08/02 00:54:17;;;;;;;11.30;5.07;;;13.30;99.90;;;;;;5109144;28;20118;-62
2022/08/02 00:56:43;;;;;;;7.25;3.63;;;13.30;99.90;;;;;;5108195;28;20043;-62
2022/08/02 00:59:09;;;;;;;10.05;4.85;;;13.50;99.90;;;;;;5107857;28;20044;-62
2022/08/02 01:01:37;;;;;;;10.30;5.30;;;13.30;99.90;;;;;;5107870;28;20042;-62
2022/08/02 01:04:13;;;;;;;10.02;5.00;;;13.30;99.90;;;;;;5108228;28;20363;-62
2022/08/02 01:06:41;;;;;;;7.38;4.28;;;13.30;99.90;;;;;;5109014;28;20487;-62
2022/08/02 01:09:07;;;;;;;10.43;4.30;;;13.20;99.90;;;;;;5107605;28;20027;-62
2022/08/02 01:11:34;;;;;;;9.68;4.47;;;13.20;99.90;;;;;;5107366;28;20206;-62
2022/08/02 01:14:10;;;;;;;10.70;4.57;;;13.20;99.90;;;;;;5108442;28;20039;-62
2022/08/02 01:16:41;;;;;;;9.88;3.70;;;13.20;99.90;;;;;;5107141;28;20040;-62
2022/08/02 01:19:41;;;;;;;5.28;3.30;;;13.10;99.90;;;;;;5107621;28;20510;-62
2022/08/02 01:22:24;;;;;;;9.55;3.80;;;13.10;99.90;;;;;;5100841;28;20051;-62
2022/08/02 01:25:09;;;;;;;7.22;3.47;;;13.10;99.90;;;;;;5108088;28;20044;-62
2022/08/02 01:28:25;;;;;;;7.65;3.25;;;13.10;99.90;;;;;;5108099;28;20514;-62
2022/08/02 01:30:59;;;;;;;4.20;3.00;;;13.10;99.90;;;;;;5054002;28;20419;-62
2022/08/02 01:33:34;;;;;;;8.73;3.05;;;13.10;99.90;;;;;;5105567;28;20502;-62
2022/08/02 01:36:03;;;;;;;5.90;3.17;;;13.10;99.90;;;;;;5107695;28;20086;-62
2022/08/02 01:38:47;;;;;;;5.72;2.83;;;13.10;99.90;;;;;;5105634;28;20522;-62
2022/08/02 01:41:21;;;;;;;8.80;2.65;;;13.10;99.90;;;;;;5107009;28;20047;-62
2022/08/02 01:43:50;;;;;;;3.60;3.05;;;13.00;99.90;;;;;;5106790;28;20626;-62
2022/08/02 01:46:17;;;;;;;7.07;3.05;;;12.90;99.90;;;;;;5105906;28;20138;-62
2022/08/02 01:48:45;;;;;;;5.65;3.05;;;13.00;99.90;;;;;;5100642;28;20048;-62
2022/08/02 01:51:15;;;;;;;7.05;3.30;;;12.80;99.90;;;;;;5108688;28;20119;-62
2022/08/02 01:53:44;;;;;;;8.40;3.22;;;12.80;99.90;;;;;;5094325;28;20081;-62
2022/08/02 01:56:13;;;;;;;6.30;2.70;;;12.80;99.90;;;;;;5102850;28;20035;-62
2022/08/02 01:58:40;;;;;;;5.88;2.88;;;12.80;99.90;;;;;;5080660;28;20419;-62
2022/08/02 02:01:08;;;;;;;8.95;3.20;;;12.70;99.90;;;;;;5106379;28;20448;-62
2022/08/02 02:03:35;;;;;;;6.53;2.70;;;12.70;99.90;;;;;;5107261;28;20047;-62
2022/08/02 02:06:04;;;;;;;10.15;3.50;;;12.90;99.90;;;;;;5104961;28;20050;-62
2022/08/02 02:08:38;;;;;;;5.05;2.90;;;12.60;99.90;;;;;;5107731;28;20039;-62
2022/08/02 02:11:05;;;;;;;14.23;3.30;;;12.60;99.90;;;;;;5106136;28;20105;-62
2022/08/02 02:13:31;;;;;;;5.40;3.10;;;12.60;99.90;;;;;;5106974;28;20123;-62
2022/08/02 02:16:00;;;;;;;6.90;3.15;;;12.60;99.90;;;;;;5107037;28;20042;-62
2022/08/02 02:18:28;;;;;;;8.27;3.08;;;12.60;99.90;;;;;;5107147;28;20199;-62
2022/08/02 02:20:54;;;;;;;8.75;3.08;;;12.50;99.90;;;;;;5105254;28;20487;-62
2022/08/02 02:23:20;;;;;;;14.13;2.67;;;12.60;99.90;;;;;;5106140;28;20403;-62
2022/08/02 02:25:46;;;;;;;4.85;2.88;;;12.60;99.90;;;;;;5106297;28;20044;-62
2022/08/02 02:28:29;;;;;;;4.22;2.97;;;12.80;99.90;;;;;;5107197;28;20387;-62
2022/08/02 02:31:12;;;;;;;5.18;3.17;;;12.60;99.90;;;;;;5106085;28;20158;-62
2022/08/02 02:33:45;;;;;;;5.53;2.30;;;12.50;99.90;;;;;;5105735;28;20130;-62
2022/08/02 02:36:12;;;;;;;4.38;2.78;;;12.50;99.90;;;;;;5097984;28;20097;-62
2022/08/02 02:38:39;;;;;;;6.50;3.40;;;12.60;99.90;;;;;;5104935;28;20491;-62
2022/08/02 02:41:05;;;;;;;6.65;2.78;;;12.50;99.90;;;;;;5104090;28;20130;-63
2022/08/02 02:43:32;;;;;;;7.03;2.80;;;12.50;99.90;;;;;;5106462;28;20514;-62
2022/08/02 02:45:59;;;;;;;6.43;2.13;;;12.50;99.90;;;;;;5105927;28;20495;-62
2022/08/02 02:48:28;;;;;;;5.82;3.00;;;12.40;99.90;;;;;;5106381;28;20118;-62
2022/08/02 02:50:54;;;;;;;5.50;2.03;;;12.40;99.90;;;;;;5105439;28;20059;-62
2022/08/02 02:53:21;;;;;;;11.32;2.75;;;12.40;99.90;;;;;;5106869;28;20042;-62
2022/08/02 02:55:48;;;;;;;8.40;3.00;;;12.40;99.90;;;;;;5105067;28;20517;-62
2022/08/02 02:58:14;;;;;;;13.93;3.80;;;12.40;99.90;;;;;;5106752;28;20039;-62
2022/08/02 03:03:25;;;;;;;9.65;3.20;;;12.50;99.90;;;;;;5105698;28;20044;-62
2022/08/02 03:05:51;;;;;;;8.82;3.45;;;12.40;99.90;;;;;;5105944;28;20139;-62
2022/08/02 03:08:16;;;;;;;7.25;3.03;;;12.40;99.90;;;;;;5106240;28;20035;-62
2022/08/02 03:10:44;;;;;;;3.97;2.95;;;12.40;99.90;;;;;;5105973;28;20050;-62
2022/08/02 03:13:11;;;;;;;6.88;3.15;;;12.50;99.90;;;;;;5099343;28;20096;-62
2022/08/02 03:15:38;;;;;;;11.27;3.25;;;12.40;99.90;;;;;;5105935;28;20043;-62
2022/08/02 03:18:06;;;;;;;7.38;2.75;;;12.40;99.90;;;;;;5098973;28;20346;-62
2022/08/02 03:20:32;;;;;;;6.63;3.35;;;12.40;99.90;;;;;;5102641;28;20056;-62
2022/08/02 03:22:57;;;;;;;5.05;3.28;;;12.40;99.90;;;;;;5104607;28;20048;-62
2022/08/02 03:25:23;;;;;;;6.38;2.95;;;12.40;99.90;;;;;;5106338;28;20059;-62
2022/08/02 03:27:50;;;;;;;10.52;4.25;;;12.40;99.90;;;;;;5105473;28;20384;-62
2022/08/02 03:30:16;;;;;;;5.78;3.25;;;12.40;99.90;;;;;;5105504;28;20380;-62
2022/08/02 03:32:46;;;;;;;5.32;2.38;;;12.30;99.90;;;;;;5106173;28;20145;-62
2022/08/02 03:35:15;;;;;;;13.82;3.78;;;12.30;99.90;;;;;;5105388;28;20047;-62
2022/08/02 03:37:41;;;;;;;6.57;3.45;;;12.30;99.90;;;;;;5105887;28;20043;-62
2022/08/02 03:40:09;;;;;;;8.43;3.97;;;12.30;99.90;;;;;;5105471;28;20184;-62
2022/08/02 03:42:35;;;;;;;8.65;3.75;;;12.30;99.90;;;;;;5105487;28;20125;-62
2022/08/02 03:45:02;;;;;;;6.65;3.45;;;12.40;99.90;;;;;;5093263;28;20056;-62
2022/08/02 03:47:29;;;;;;;9.30;3.28;;;12.40;99.90;;;;;;5106152;28;20063;-62
2022/08/02 03:49:56;;;;;;;5.93;3.15;;;12.30;99.90;;;;;;5104777;28;20064;-62
2022/08/02 03:52:23;;;;;;;6.95;3.75;;;12.40;99.90;;;;;;5105396;28;20046;-62
2022/08/02 03:54:49;;;;;;;8.68;3.38;;;12.30;99.90;;;;;;5104681;28;20063;-62
2022/08/02 03:57:15;;;;;;;8.68;3.67;;;12.40;99.90;;;;;;5105368;28;20403;-62
2022/08/02 03:59:42;;;;;;;8.63;4.07;;;12.40;99.90;;;;;;5092647;28;20048;-62
2022/08/02 04:02:08;;;;;;;6.60;3.97;;;12.40;99.90;;;;;;5105815;28;20093;-62
2022/08/02 04:04:34;;;;;;;5.93;3.78;;;12.40;99.90;;;;;;5102988;28;20399;-62
2022/08/02 04:06:59;;;;;;;6.90;3.42;;;12.40;99.90;;;;;;5104306;28;20110;-62
2022/08/02 04:09:25;;;;;;;9.90;3.58;;;12.40;99.90;;;;;;5101482;28;20465;-62
2022/08/02 04:11:51;;;;;;;6.82;4.00;;;12.40;99.90;;;;;;5103456;28;20047;-62
2022/08/02 04:14:16;;;;;;;11.80;4.13;;;12.40;99.90;;;;;;5105064;28;20039;-62
2022/08/02 04:16:44;;;;;;;4.90;3.35;;;12.40;99.90;;;;;;5102126;28;20122;-62
2022/08/02 04:19:15;;;;;;;6.55;3.78;;;12.30;99.90;;;;;;5102110;28;20130;-62
2022/08/02 04:21:45;;;;;;;6.45;3.63;;;12.30;99.90;;;;;;5106048;28;20047;-62
2022/08/02 04:24:11;;;;;;;7.03;3.65;;;12.30;99.90;;;;;;5105118;28;20120;-62
2022/08/02 04:26:39;;;;;;;5.78;3.45;;;12.30;99.90;;;;;;5105020;28;20040;-62
2022/08/02 04:29:05;;;;;;;7.15;3.50;;;12.30;99.90;;;;;;5105320;28;20043;-62
2022/08/02 04:31:31;;;;;;;6.05;3.90;;;12.40;99.90;;;;;;5105252;28;20436;-62
2022/08/02 04:33:58;;;;;;;6.28;3.58;;;12.30;99.90;;;;;;5100737;28;20126;-62
2022/08/02 04:36:24;;;;;;;5.53;3.80;;;12.30;99.90;;;;;;5104073;28;20055;-62
2022/08/02 04:38:50;;;;;;;7.53;3.80;;;12.40;99.90;;;;;;5103666;28;20040;-62
2022/08/02 04:41:15;;;;;;;11.43;4.28;;;12.40;99.90;;;;;;5104165;28;20036;-62
2022/08/02 04:43:41;;;;;;;6.70;3.70;;;12.40;99.90;;;;;;5105130;28;20047;-62
2022/08/02 04:46:07;;;;;;;8.90;4.70;;;12.40;99.90;;;;;;5101958;28;20114;-62
2022/08/02 04:48:32;;;;;;;7.43;3.75;;;12.50;99.90;;;;;;5108129;28;20043;-62
2022/08/02 04:50:58;;;;;;;8.52;3.50;;;12.50;99.90;;;;;;5107435;28;20091;-62
2022/08/02 04:53:24;;;;;;;5.60;3.53;;;12.60;99.90;;;;;;5108318;28;20081;-62
2022/08/02 04:55:49;;;;;;;7.95;4.38;;;12.70;99.90;;;;;;5107638;28;20046;-62
2022/08/02 04:58:15;;;;;;;9.57;4.47;;;12.60;99.90;;;;;;5107912;28;20127;-62
2022/08/02 05:00:41;;;;;;;6.78;4.00;;;12.70;99.90;;;;;;5107884;28;20047;-62
2022/08/02 05:03:07;;;;;;;7.78;4.00;;;12.70;99.90;;;;;;5105435;28;20031;-62
2022/08/02 05:05:32;;;;;;;7.97;4.50;;;12.70;99.90;;;;;;5105260;28;20521;-62
2022/08/02 05:07:58;;;;;;;15.45;4.50;;;12.70;99.90;;;;;;5107972;28;20040;-62
2022/08/02 05:10:24;;;;;;;8.40;3.92;;;12.80;99.90;;;;;;5108300;28;20032;-63
2022/08/02 05:12:49;;;;;;;5.75;4.38;;;12.80;99.90;;;;;;5101494;28;20125;-63
2022/08/02 05:15:17;;;;;;;7.47;3.55;;;13.10;99.90;;;;;;5107437;28;20031;-63
2022/08/02 05:17:44;;;;;;;7.78;3.75;;;13.00;99.90;;;;;;5107406;28;20051;-63
2022/08/02 05:20:14;;;;;;;9.82;4.22;;;13.10;99.90;;;;;;5105871;28;20046;-63
2022/08/02 05:22:40;;;;;;;6.97;4.10;;;13.10;99.90;;;;;;5093670;28;20392;-63
2022/08/02 05:25:06;;;;;;;7.63;3.92;;;13.20;99.90;;;;;;5104907;28;20110;-63
2022/08/02 05:27:32;;;;;;;6.32;3.72;;;13.30;99.90;;;;;;5107510;28;20388;-63
2022/08/02 05:29:58;;;;;;;5.28;3.83;;;13.40;99.90;;;;;;5103400;28;20500;-62
2022/08/02 05:32:24;;;;;;;9.07;4.00;;;13.50;99.90;;;;;;5106774;28;20134;-62
2022/08/02 05:34:50;;;;;;;6.68;3.42;;;13.60;99.90;;;;;;5107065;28;20119;-65
2022/08/02 05:37:16;;;;;;;10.80;4.22;;;13.60;99.90;;;;;;5099838;28;20031;-65
2022/08/02 05:39:42;;;;;;;9.05;3.92;;;13.70;99.90;;;;;;5106988;28;20067;-65
2022/08/02 05:42:08;;;;;;;11.27;4.07;;;13.80;99.90;;;;;;5107569;28;20040;-66
2022/08/02 05:44:33;;;;;;;9.20;4.03;;;13.70;99.90;;;;;;5106469;28;20043;-66
2022/08/02 05:46:59;;;;;;;9.80;3.45;;;13.80;99.90;;;;;;5106054;28;20071;-65
2022/08/02 05:49:24;;;;;;;9.00;3.88;;;13.80;99.90;;;;;;5108030;28;20088;-65
2022/08/02 05:52:03;;;;;;;8.38;4.30;;;13.90;99.90;;;;;;5106098;28;20514;-65
2022/08/02 05:54:49;;;;;;;9.60;3.25;;;14.00;99.90;;;;;;5108483;27;20153;-66
2022/08/02 05:57:47;;;;;;;6.05;3.25;;;14.10;99.90;;;;;;5106807;28;20040;-66
2022/08/02 06:00:14;;;;;;;8.35;3.08;;;14.30;99.90;;;;;;5076224;28;20055;-66
2022/08/02 06:02:42;;;;;;;8.90;3.15;;;14.30;99.90;;;;;;5108414;28;20053;-66
2022/08/02 06:05:14;;;;;;;10.10;4.22;;;14.60;99.90;;;;;;5107463;28;20047;-66
2022/08/02 06:07:42;;;;;;;8.90;3.97;;;14.50;99.90;;;;;;5105273;28;20061;-66
2022/08/02 06:10:08;;;;;;;8.68;3.50;;;14.70;99.90;;;;;;5106238;28;20031;-66
2022/08/02 06:12:53;;;;;;;9.00;3.80;;;14.80;99.90;;;;;;5107797;28;20340;-65
2022/08/02 06:15:19;;;;;;;6.60;2.75;;;14.90;99.90;;;;;;5104932;28;20411;-65
2022/08/02 06:17:46;;;;;;;10.32;3.28;;;15.00;99.90;;;;;;5107373;28;20047;-65
2022/08/02 06:20:12;;;;;;;6.63;3.10;;;15.20;99.90;;;;;;5104830;28;20048;-65
2022/08/02 06:22:42;;;;;;;6.15;3.08;;;15.20;99.90;;;;;;5107429;28;20140;-65
2022/08/02 06:25:10;;;;;;;4.95;2.50;;;15.30;99.90;;;;;;5107279;28;20089;-65
2022/08/02 06:27:37;;;;;;;3.28;2.85;;;15.40;99.90;;;;;;5103616;28;20062;-65
2022/08/02 06:30:05;;;;;;;5.80;3.08;;;15.50;99.90;;;;;;5107363;28;20031;-65
2022/08/02 06:32:33;;;;;;;7.25;3.10;;;15.60;99.90;;;;;;5107565;28;20043;-65
2022/08/02 06:34:58;;;;;;;14.05;3.45;;;15.60;99.90;;;;;;5105711;28;20384;-65
2022/08/02 06:37:43;;;;;;;6.75;2.70;;;15.70;99.90;;;;;;5108020;28;20042;-65
2022/08/02 06:40:21;;;;;;;9.80;3.42;;;15.80;99.90;;;;;;5105261;28;20048;-65
2022/08/02 06:42:49;;;;;;;4.80;2.40;;;15.90;99.90;;;;;;5104068;28;20039;-65
2022/08/02 06:45:15;;;;;;;7.25;3.20;;;16.00;99.90;;;;;;5101473;28;20142;-65
2022/08/02 06:47:41;;;;;;;5.53;3.00;;;16.10;99.90;;;;;;5100464;28;20170;-64
2022/08/02 06:50:07;;;;;;;9.88;2.70;;;16.20;99.90;;;;;;5100874;28;20051;-64
2022/08/02 06:52:34;;;;;;;10.57;2.95;;;16.30;99.90;;;;;;5099743;28;20032;-65
2022/08/02 06:55:02;;;;;;;5.28;2.25;;;16.40;99.90;;;;;;5105050;28;20051;-64
2022/08/02 06:57:29;;;;;;;6.32;2.28;;;16.50;99.90;;;;;;5099723;28;20043;-64
2022/08/02 06:59:55;;;;;;;2.92;1.92;;;16.80;99.90;;;;;;5100612;28;20051;-65
2022/08/02 07:02:21;;;;;;;7.13;2.45;;;16.80;99.90;;;;;;5104407;28;20110;-64
2022/08/02 07:04:47;;;;;;;4.63;2.00;;;16.90;99.90;;;;;;5078121;28;20048;-59
2022/08/02 07:07:13;;;;;;;7.90;2.40;;;17.10;99.90;;;;;;5097419;28;20039;-60
2022/08/02 07:09:39;;;;;;;16.10;2.53;;;17.10;99.90;;;;;;5097080;28;20487;-60
2022/08/02 07:12:05;;;;;;;4.35;2.42;;;17.10;99.90;;;;;;5094430;28;20084;-60
2022/08/02 07:14:31;;;;;;;4.45;1.80;;;17.20;99.90;;;;;;5104133;28;20044;-60
2022/08/02 07:16:57;;;;;;;4.18;1.75;;;17.30;99.90;;;;;;5098554;28;20039;-64
2022/08/02 07:19:23;;;;;;;5.78;1.58;;;17.30;99.90;;;;;;5096947;28;20448;-64
2022/08/02 07:21:48;;;;;;;6.20;2.22;;;17.30;99.90;;;;;;5100623;28;20122;-62
2022/08/02 07:24:14;;;;;;;3.92;1.58;;;17.40;99.90;;;;;;5078359;28;20123;-63
2022/08/02 07:26:40;;;;;;;6.40;2.20;;;17.50;99.90;;;;;;5103630;28;20410;-62
2022/08/02 07:29:05;;;;;;;5.47;1.75;;;17.60;99.90;;;;;;5101139;28;20046;-62
2022/08/02 07:31:31;;;;;;;5.40;1.65;;;17.60;99.90;;;;;;5103923;28;20093;-63
2022/08/02 07:33:56;;;;;;;4.72;1.98;;;17.80;99.90;;;;;;5087487;28;20040;-63
2022/08/02 07:36:22;;;;;;;5.32;1.55;;;17.90;99.90;;;;;;5099742;28;20145;-63
2022/08/02 07:38:48;;;;;;;1.88;1.35;;;18.00;99.90;;;;;;5102636;28;20042;-63
2022/08/02 07:41:14;;;;;;;5.65;1.95;;;18.10;99.90;;;;;;5101849;28;20149;-64
2022/08/02 07:43:40;;;;;;;3.40;1.67;;;18.20;99.90;;;;;;5073073;28;20044;-63
2022/08/02 07:46:06;;;;;;;4.85;1.73;;;18.30;99.90;;;;;;5105548;28;20117;-63
2022/08/02 07:48:31;;;;;;;2.25;1.20;;;18.40;99.90;;;;;;5096325;28;20051;-65
2022/08/02 07:50:57;;;;;;;8.73;1.50;;;18.50;99.90;;;;;;5088075;28;20091;-65
2022/08/02 07:53:22;;;;;;;4.10;1.58;;;18.70;99.90;;;;;;5099720;28;20087;-63
2022/08/02 07:55:48;;;;;;;2.92;1.20;;;18.90;99.90;;;;;;5096375;28;20056;-64
2022/08/02 07:58:14;;;;;;;2.55;1.48;;;19.00;99.90;;;;;;5087118;28;20041;-64
2022/08/02 08:00:43;;;;;;;2.47;1.08;;;19.10;99.90;;;;;;5091272;28;20051;-64
2022/08/02 08:03:09;;;;;;;2.35;1.17;;;19.30;99.90;;;;;;5106143;28;20506;-64
2022/08/02 08:05:35;;;;;;;4.40;1.10;;;19.40;99.90;;;;;;5100060;28;20048;-64
2022/08/02 08:08:01;;;;;;;5.03;1.90;;;19.40;99.90;;;;;;5106678;28;20368;-64
2022/08/02 08:10:27;;;;;;;2.33;0.65;;;19.60;99.90;;;;;;5106821;28;20089;-64
2022/08/02 08:12:54;;;;;;;3.63;0.90;;;19.60;99.90;;;;;;5106123;28;20047;-64
2022/08/02 08:15:20;;;;;;;1.27;0.90;;;19.70;99.90;;;;;;5106986;28;20043;-64
2022/08/02 08:17:45;;;;;;;1.48;0.75;;;19.80;99.90;;;;;;5106772;28;20074;-64
2022/08/02 08:20:11;;;;;;;2.67;0.70;;;19.90;99.90;;;;;;5100246;28;20063;-64
2022/08/02 08:22:37;;;;;;;2.15;0.75;;;20.00;99.90;;;;;;5080390;28;20051;-64
2022/08/02 08:25:03;;;;;;;1.95;0.60;;;20.00;99.90;;;;;;5097544;28;20048;-64
2022/08/02 08:27:28;;;;;;;3.15;0.90;;;20.00;99.90;;;;;;5097844;28;20385;-64
2022/08/02 08:29:54;;;;;;;2.33;0.75;;;20.10;99.90;;;;;;5095791;28;20051;-64
2022/08/02 08:32:20;;;;;;;2.40;1.02;;;20.10;99.90;;;;;;5096345;28;20118;-64
2022/08/02 08:34:45;;;;;;;2.40;0.55;;;20.10;99.90;;;;;;5101237;28;20487;-66
2022/08/02 08:37:11;;;;;;;1.90;0.95;;;20.20;99.90;;;;;;5099972;28;20044;-64
2022/08/02 08:39:37;;;;;;;2.65;0.80;;;20.30;99.90;;;;;;5097303;28;20044;-65
2022/08/02 08:42:06;;;;;;;1.38;0.73;;;20.40;99.90;;;;;;5105343;28;21077;-65
2022/08/02 08:44:33;;;;;;;1.65;0.77;;;20.50;99.90;;;;;;5107158;28;20130;-65
2022/08/02 08:47:01;;;;;;;1.02;0.55;;;20.60;99.90;;;;;;5106496;28;20047;-64
2022/08/02 08:49:43;;;;;;;2.20;1.08;;;20.70;99.90;;;;;;5110172;28;20418;-63
2022/08/02 08:52:10;;;;;;;3.08;0.82;;;20.80;99.90;;;;;;5090907;28;20086;-64
2022/08/02 08:54:37;;;;;;;2.75;0.90;;;20.90;99.90;;;;;;5100513;28;20040;-64
2022/08/02 08:57:06;;;;;;;2.83;0.80;;;21.00;99.90;;;;;;5107311;28;20058;-64
2022/08/02 08:59:33;;;;;;;1.52;0.80;;;21.10;99.90;;;;;;5097654;28;20054;-64
2022/08/02 09:02:00;;;;;;;2.67;0.90;;;21.20;99.90;;;;;;5102530;28;20051;-63
2022/08/02 09:04:26;;;;;;;5.97;0.90;;;21.30;99.90;;;;;;5103796;28;20052;-64
2022/08/02 09:06:51;;;;;;;3.03;1.10;;;21.30;99.90;;;;;;5105462;28;20047;-63
2022/08/02 09:09:17;;;;;;;1.70;0.80;;;21.40;99.90;;;;;;5098080;28;20036;-63
2022/08/02 09:11:43;;;;;;;3.05;0.80;;;21.50;99.90;;;;;;5100102;28;20048;-63
2022/08/02 09:14:09;;;;;;;3.08;0.93;;;21.60;99.90;;;;;;5081945;28;20075;-64
2022/08/02 09:16:35;;;;;;;2.10;1.02;;;21.70;99.90;;;;;;5100637;28;20054;-64
2022/08/02 09:19:17;;;;;;;1.95;1.25;;;21.80;99.90;;;;;;5086210;28;20051;-65
2022/08/02 09:21:43;;;;;;;2.50;0.95;;;21.90;99.90;;;;;;5099974;28;20580;-63
2022/08/02 09:24:22;;;;;;;1.48;1.20;;;22.00;99.90;;;;;;5102440;28;20588;-62
2022/08/02 09:26:49;;;;;;;2.72;0.95;;;22.10;99.90;;;;;;5097685;28;20130;-63
2022/08/02 09:29:16;;;;;;;1.10;0.85;;;22.20;99.90;;;;;;5103347;28;20047;-63
2022/08/02 09:31:43;;;;;;;1.88;0.82;;;22.30;99.90;;;;;;5102048;28;20112;-62
2022/08/02 09:34:09;;;;;;;2.90;0.85;;;22.40;99.90;;;;;;5095297;28;20051;-62
2022/08/02 09:36:40;;;;;;;2.53;0.80;;;22.50;99.90;;;;;;5099536;28;20111;-62
2022/08/02 09:39:09;;;;;;;3.53;1.38;;;22.60;99.90;;;;;;5100390;28;20499;-62
2022/08/02 09:41:39;;;;;;;1.25;0.70;;;22.60;99.90;;;;;;5105923;28;20099;-62
2022/08/02 09:44:06;;;;;;;3.22;1.25;;;22.70;99.90;;;;;;5099338;28;20050;-62
2022/08/02 09:46:37;;;;;;;1.95;1.02;;;22.70;99.90;;;;;;5103287;28;20058;-62
2022/08/02 09:49:11;;;;;;;1.93;1.00;;;22.70;99.90;;;;;;5102934;28;20052;-63
2022/08/02 09:51:53;;;;;;;2.08;0.95;;;22.60;99.90;;;;;;5095519;28;20292;-63
2022/08/02 09:54:22;;;;;;;3.58;1.15;;;22.70;99.90;;;;;;5098515;28;20054;-62
2022/08/02 09:56:49;;;;;;;2.33;0.90;;;22.80;99.90;;;;;;5096984;28;20036;-62
2022/08/02 09:59:16;;;;;;;2.80;1.25;;;23.00;99.90;;;;;;5084179;28;20428;-62
2022/08/02 10:01:44;;;;;;;2.80;1.48;;;23.10;99.90;;;;;;5105161;28;20441;-63
2022/08/02 10:04:12;;;;;;;9.07;1.75;;;23.20;99.90;;;;;;5105466;28;20402;-65
2022/08/02 10:06:39;;;;;;;3.85;1.20;;;23.40;99.90;;;;;;5098057;28;20039;-63
2022/08/02 10:09:09;;;;;;;3.95;1.65;;;23.40;99.90;;;;;;5105223;28;20040;-64
2022/08/02 10:11:35;;;;;;;4.25;1.65;;;23.50;99.90;;;;;;5096455;28;20055;-65
2022/08/02 10:14:05;;;;;;;3.83;1.50;;;23.40;99.90;;;;;;5105531;28;20047;-64
2022/08/02 10:16:33;;;;;;;5.10;1.50;;;23.30;99.90;;;;;;5101986;28;20491;-64
2022/08/02 10:19:01;;;;;;;2.15;1.45;;;23.30;99.90;;;;;;5095881;28;20062;-62
2022/08/02 10:21:32;;;;;;;3.75;1.30;;;23.40;99.90;;;;;;5103482;28;20502;-62
2022/08/02 10:24:06;;;;;;;3.95;2.00;;;23.50;99.90;;;;;;5103857;28;20043;-62
2022/08/02 10:26:33;;;;;;;2.90;1.40;;;23.50;99.90;;;;;;5096092;28;20102;-62
2022/08/02 10:28:59;;;;;;;2.25;1.88;;;23.60;99.90;;;;;;5100930;28;20093;-62
2022/08/02 10:31:32;;;;;;;5.90;2.50;;;23.70;99.90;;;;;;5100640;28;20054;-62
2022/08/02 10:34:00;;;;;;;2.78;2.08;;;23.60;99.90;;;;;;5099045;28;20046;-62
2022/08/02 10:36:28;;;;;;;6.50;2.30;;;23.60;99.90;;;;;;5093995;28;20048;-62
2022/08/02 10:38:57;;;;;;;3.80;2.55;;;23.60;99.90;;;;;;5096680;28;20075;-62
2022/08/02 10:41:43;;;;;;;4.53;2.13;;;23.70;99.90;;;;;;5094490;28;20122;-62
2022/08/02 10:44:18;;;;;;;4.45;2.17;;;23.90;99.90;;;;;;5098083;28;20067;-64
2022/08/02 10:46:44;;;;;;;10.10;2.40;;;24.10;99.90;;;;;;5097769;28;20040;-66
2022/08/02 10:49:18;;;;;;;4.68;2.13;;;24.30;99.90;;;;;;5063096;28;20054;-65
2022/08/02 10:51:56;;;;;;;2.20;1.98;;;24.50;99.90;;;;;;5103747;28;20059;-65
2022/08/02 10:54:32;;;;;;;2.97;2.47;;;24.50;99.90;;;;;;5076905;28;20043;-64
2022/08/02 10:56:59;;;;;;;5.40;2.28;;;24.40;99.90;;;;;;5087058;28;20040;-64
2022/08/02 10:59:31;;;;;;;4.47;2.80;;;24.30;99.90;;;;;;5093263;28;20122;-64
2022/08/02 11:02:02;;;;;;;4.55;2.60;;;24.30;99.90;;;;;;5078035;28;20078;-63
2022/08/02 11:04:29;;;;;;;3.30;2.10;;;24.30;99.90;;;;;;5092350;28;20040;-62
2022/08/02 11:07:09;;;;;;;4.65;2.38;;;24.20;99.90;;;;;;5102493;28;20407;-64
2022/08/02 11:09:36;;;;;;;8.02;2.03;;;24.30;99.90;;;;;;5092849;28;20063;-63
2022/08/02 11:12:06;;;;;;;3.00;2.30;;;24.20;99.90;;;;;;5100969;28;20039;-66
2022/08/02 11:14:35;;;;;;;3.05;2.10;;;24.20;99.90;;;;;;5101650;28;20403;-64
2022/08/02 11:17:15;;;;;;;6.10;2.28;;;24.20;99.90;;;;;;5096243;28;20483;-64
2022/08/02 11:20:20;;;;;;;3.50;2.35;;;24.20;99.90;;;;;;5103406;28;20047;-65
2022/08/02 11:22:47;;;;;;;3.38;2.05;;;24.30;99.90;;;;;;5109395;28;20036;-63
2022/08/02 11:25:21;;;;;;;2.90;2.25;;;24.30;99.90;;;;;;5106137;28;20043;-64
2022/08/02 11:27:48;;;;;;;4.10;2.38;;;24.30;99.90;;;;;;5098957;28;20043;-64
2022/08/02 11:30:14;;;;;;;3.65;2.33;;;24.30;99.90;;;;;;5104727;28;20062;-64
2022/08/02 11:32:40;;;;;;;6.45;2.42;;;24.30;99.90;;;;;;5103505;28;20419;-64
2022/08/02 11:35:06;;;;;;;4.68;2.38;;;24.40;99.90;;;;;;5103844;28;20048;-63
2022/08/02 11:37:41;;;;;;;4.10;1.92;;;24.40;99.90;;;;;;5086675;28;20447;-64
2022/08/02 11:40:09;;;;;;;2.83;2.47;;;24.40;99.90;;;;;;5102562;28;20161;-64
2022/08/02 11:42:43;;;;;;;5.15;2.58;;;24.40;99.90;;;;;;5098168;28;20044;-64
2022/08/02 11:45:09;;;;;;;3.58;2.75;;;24.40;99.90;;;;;;5095414;28;20056;-64
2022/08/02 11:47:52;;;;;;;3.47;2.90;;;24.50;99.90;;;;;;5100350;28;20423;-64
2022/08/02 11:50:19;;;;;;;4.35;2.78;;;24.60;99.90;;;;;;5087775;28;20074;-64
2022/08/02 11:52:45;;;;;;;6.22;2.60;;;24.50;99.90;;;;;;5099228;28;20441;-64
2022/08/02 11:55:12;;;;;;;4.88;3.20;;;24.50;99.90;;;;;;5078598;28;20043;-65
2022/08/02 11:57:39;;;;;;;3.90;3.47;;;24.50;99.90;;;;;;5098033;28;20075;-64
2022/08/02 12:00:13;;;;;;;4.22;2.60;;;24.50;99.90;;;;;;5109277;28;20047;-64
2022/08/02 12:02:46;;;;;;;5.68;2.97;;;24.50;99.90;;;;;;5109685;28;20084;-64
2022/08/02 12:05:16;;;;;;;4.18;2.95;;;24.40;99.90;;;;;;5101517;28;20054;-64
2022/08/02 12:07:44;;;;;;;12.48;2.20;;;24.40;99.90;;;;;;5105163;28;20051;-64
2022/08/02 12:10:16;;;;;;;2.50;1.60;;;24.40;99.90;;;;;;5103757;28;20070;-64
2022/08/02 12:12:52;;;;;;;3.65;1.40;;;24.30;99.90;;;;;;5107806;28;20053;-64
2022/08/02 12:15:40;;;;;;;2.13;1.63;;;24.30;99.90;;;;;;5106154;28;20127;-61
2022/08/02 12:21:03;;;;;;;2.25;1.92;;;24.20;99.90;;;;;;5098100;28;20052;-61
2022/08/02 12:23:29;;;;;;;3.38;2.33;;;24.10;99.90;;;;;;5104493;28;20052;-61
2022/08/02 12:26:05;;;;;;;3.20;2.22;;;24.10;99.90;;;;;;5099048;28;20073;-61
2022/08/02 12:28:37;;;;;;;4.13;2.30;;;24.00;99.90;;;;;;5103534;28;20071;-60
2022/08/02 12:31:04;;;;;;;2.70;2.50;;;24.00;99.90;;;;;;5100238;28;20117;-60
2022/08/02 12:33:45;;;;;;;5.05;2.65;;;23.90;99.90;;;;;;5104908;28;20036;-60
2022/08/02 12:36:19;;;;;;;2.65;2.45;;;23.80;99.90;;;;;;5103899;28;20399;-60
2022/08/02 12:38:59;;;;;;;4.95;3.38;;;23.80;99.90;;;;;;5097106;28;20048;-60
2022/08/02 12:41:27;;;;;;;6.57;3.85;;;23.70;99.90;;;;;;5098609;28;20040;-60
2022/08/02 12:43:54;;;;;;;7.30;3.90;;;23.70;99.90;;;;;;5102324;28;20804;-60
2022/08/02 12:46:21;;;;;;;3.25;2.95;;;23.70;99.90;;;;;;5102180;28;20040;-60
2022/08/02 12:48:48;;;;;;;6.15;3.30;;;23.60;99.90;;;;;;5097835;28;20067;-61
2022/08/02 12:51:32;;;;;;;4.85;3.58;;;23.60;99.90;;;;;;5098573;28;20060;-61
2022/08/02 12:54:37;;;;;;;6.22;3.78;;;23.60;99.90;;;;;;5094299;28;20090;-60
2022/08/02 12:57:13;;;;;;;4.47;3.85;;;23.60;99.90;;;;;;5073411;28;20138;-60
2022/08/02 12:59:40;;;;;;;3.20;2.97;;;23.70;99.90;;;;;;5107733;28;20457;-60